»·PEaware :: N2MZ KCRQ-KSNA

N2MZ :: KCRQ-KSNA

FLIGHT INFORMATION

Flight Status: Arrived
Operator: Privately registered:
United States
More flights under this callsign
Pilot: Mike Z. (25595)
Aircraft: CESSNA 172 SKYHAWK
(C172)
More flights by this aircraft type
Origin: KCRQ McClellan-Palomar
United States
Destination: KSNA John Wayne-Orange Co
United States
More flights between these airports :: More routes between these airports
Route: OCN V23 SLI
File this flight plan on PilotEdge
Remarks: TEC SANP3
Altitude:
(Current/Filed)
6,000ft
Speed:
(Current/Filed)
115kts
Departed: 28-Oct-19 09:33 AM
Arrived: 28-Oct-19 10:08 AM
Distance/Time
Traveled:
44nm/0:35
Distance/Time
To Go:
Arrived

Flight Plot

Page will automatically refresh every two minutes.


Map Options




Map Legend


Flown Route
Filed Route
Departure Airport
Arrival Airport
Navaid (VOR, NDB)
Fix

Horizontal Profiles

Position Reports

Time Latitude Longitude Heading Altitude Ground
Speed
28-Oct-19 09:13 33.126637 -117.275225 167 335ft 0kts
28-Oct-19 09:14 33.126637 -117.275225 167 335ft 0kts
28-Oct-19 09:15 33.126637 -117.275225 167 335ft 0kts
28-Oct-19 09:16 33.126637 -117.275225 167 335ft 0kts
28-Oct-19 09:17 33.126637 -117.275225 167 335ft 0kts
28-Oct-19 09:18 33.126637 -117.275225 167 335ft 0kts
28-Oct-19 09:19 33.126637 -117.275225 167 335ft 0kts
28-Oct-19 09:20 33.126637 -117.275225 167 335ft 0kts
28-Oct-19 09:21 33.126637 -117.275225 167 335ft 0kts
28-Oct-19 09:22 33.126637 -117.275225 167 335ft 0kts
28-Oct-19 09:23 33.126637 -117.275225 167 335ft 0kts
28-Oct-19 09:24 33.126637 -117.275225 167 335ft 0kts
28-Oct-19 09:25 33.126637 -117.275225 167 335ft 0kts
28-Oct-19 09:26 33.127957 -117.276635 257 335ft 18kts
28-Oct-19 09:27 33.126886 -117.283447 258 335ft 34kts
28-Oct-19 09:28 33.126282 -117.287067 286 335ft 0kts
28-Oct-19 09:29 33.126282 -117.287067 286 335ft 0kts
28-Oct-19 09:30 33.126282 -117.287067 286 335ft 0kts
28-Oct-19 09:31 33.126293 -117.287112 286 335ft 0kts
28-Oct-19 09:32 33.128004 -117.281569 80 365ft 77kts
28-Oct-19 09:33 33.138170 -117.267982 310 1170ft 80kts
28-Oct-19 09:34 33.136472 -117.293641 260 1935ft 83kts
28-Oct-19 09:35 33.132197 -117.319278 259 2718ft 78kts
28-Oct-19 09:36 33.127306 -117.344930 260 3422ft 79kts
28-Oct-19 09:37 33.138704 -117.362149 337 4095ft 77kts
28-Oct-19 09:38 33.158747 -117.373117 331 4711ft 81kts
28-Oct-19 09:39 33.179218 -117.384711 334 5333ft 80kts
28-Oct-19 09:40 33.199743 -117.396445 350 5904ft 82kts
28-Oct-19 09:41 33.226916 -117.408775 334 5947ft 119kts
28-Oct-19 09:42 33.254402 -117.427302 323 5986ft 116kts
28-Oct-19 09:43 33.281351 -117.449416 327 5942ft 116kts
28-Oct-19 09:44 33.308306 -117.470800 325 5942ft 116kts
28-Oct-19 09:45 33.334264 -117.494083 321 5942ft 116kts
28-Oct-19 09:46 33.349641 -117.527904 295 5942ft 116kts
28-Oct-19 09:47 33.363502 -117.562712 295 5942ft 115kts
28-Oct-19 09:48 33.377420 -117.597396 295 5942ft 115kts
28-Oct-19 09:49 33.390338 -117.632552 286 5942ft 115kts
28-Oct-19 09:50 33.399175 -117.669536 285 5942ft 115kts
28-Oct-19 09:51 33.408073 -117.706494 285 5942ft 115kts
28-Oct-19 09:52 33.417060 -117.743453 286 5942ft 115kts
28-Oct-19 09:53 33.426123 -117.780355 286 5942ft 115kts
28-Oct-19 09:54 33.435282 -117.817279 286 5942ft 115kts
28-Oct-19 09:55 33.444537 -117.854233 286 5908ft 119kts
28-Oct-19 09:56 33.454766 -117.894525 286 4912ft 128kts
28-Oct-19 09:57 33.465925 -117.935013 299 3936ft 127kts
28-Oct-19 09:58 33.491066 -117.963220 311 3141ft 116kts
28-Oct-19 09:59 33.518358 -117.962021 33 2510ft 110kts
28-Oct-19 10:00 33.545525 -117.944687 20 1608ft 113kts
28-Oct-19 10:01 33.568506 -117.934762 24 1440ft 75kts
28-Oct-19 10:02 33.588916 -117.923514 27 1687ft 90kts
28-Oct-19 10:03 33.611126 -117.908656 31 1170ft 88kts
28-Oct-19 10:04 33.632390 -117.896507 21 840ft 87kts
28-Oct-19 10:05 33.654739 -117.882102 28 419ft 85kts
28-Oct-19 10:06 33.672256 -117.870866 25 60ft 64kts
28-Oct-19 10:07 33.678095 -117.868433 281 60ft 0kts
28-Oct-19 10:08 33.675115 -117.870688 208 60ft 28kts
28-Oct-19 10:09 33.671240 -117.874105 210 60ft 6kts
28-Oct-19 10:10 33.671046 -117.874238 207 60ft 0kts
28-Oct-19 10:11 33.671046 -117.874238 207 60ft 0kts
28-Oct-19 10:12 33.671046 -117.874238 207 60ft 0kts
28-Oct-19 10:13 33.671046 -117.874238 207 60ft 0kts
28-Oct-19 10:14 33.671046 -117.874238 207 60ft 0kts
28-Oct-19 10:15 33.671046 -117.874238 207 60ft 0kts
28-Oct-19 10:16 33.671046 -117.874238 207 60ft 0kts
28-Oct-19 10:17 33.671046 -117.874238 207 60ft 0kts
28-Oct-19 10:18 33.671046 -117.874238 207 60ft 0kts

Navigation Log

Ident Type
Flight plan parsing failed, navigation log unavailable